sensor_id;sensor_type;location;lat;lon;timestamp;temperature;humidity
30381;DHT22;17169;50.966;11.038;2022-12-29T00:01:37;10.30;99.90
30381;DHT22;17169;50.966;11.038;2022-12-29T00:04:39;10.20;99.90
30381;DHT22;17169;50.966;11.038;2022-12-29T00:07:42;10.20;99.90
30381;DHT22;17169;50.966;11.038;2022-12-29T00:10:46;10.20;99.90
30381;DHT22;17169;50.966;11.038;2022-12-29T00:13:48;10.20;99.90
30381;DHT22;17169;50.966;11.038;2022-12-29T00:17:08;10.20;99.90
30381;DHT22;17169;50.966;11.038;2022-12-29T00:20:10;10.20;99.90
30381;DHT22;17169;50.966;11.038;2022-12-29T00:23:30;10.20;99.90
30381;DHT22;17169;50.966;11.038;2022-12-29T00:26:55;10.20;99.90
30381;DHT22;17169;50.966;11.038;2022-12-29T00:30:18;10.20;99.90
30381;DHT22;17169;50.966;11.038;2022-12-29T00:33:37;10.20;99.90
30381;DHT22;17169;50.966;11.038;2022-12-29T00:36:57;10.20;99.90
30381;DHT22;17169;50.966;11.038;2022-12-29T00:39:59;10.10;99.90
30381;DHT22;17169;50.966;11.038;2022-12-29T00:43:20;10.20;99.90
30381;DHT22;17169;50.966;11.038;2022-12-29T00:46:42;10.20;99.90
30381;DHT22;17169;50.966;11.038;2022-12-29T00:49:44;10.20;99.90
30381;DHT22;17169;50.966;11.038;2022-12-29T00:52:46;10.20;99.90
30381;DHT22;17169;50.966;11.038;2022-12-29T00:55:49;10.20;99.90
30381;DHT22;17169;50.966;11.038;2022-12-29T00:58:52;10.10;99.90
30381;DHT22;17169;50.966;11.038;2022-12-29T01:01:55;10.20;99.90
30381;DHT22;17169;50.966;11.038;2022-12-29T01:04:57;10.10;99.90
30381;DHT22;17169;50.966;11.038;2022-12-29T01:08:00;10.10;99.90
30381;DHT22;17169;50.966;11.038;2022-12-29T01:11:04;10.20;99.90
30381;DHT22;17169;50.966;11.038;2022-12-29T01:14:07;10.20;99.90
30381;DHT22;17169;50.966;11.038;2022-12-29T01:17:10;10.20;99.90
30381;DHT22;17169;50.966;11.038;2022-12-29T01:20:13;10.20;99.90
30381;DHT22;17169;50.966;11.038;2022-12-29T01:23:15;10.30;99.90
30381;DHT22;17169;50.966;11.038;2022-12-29T01:26:18;10.30;99.90
30381;DHT22;17169;50.966;11.038;2022-12-29T01:29:22;10.20;99.90
30381;DHT22;17169;50.966;11.038;2022-12-29T01:32:24;10.20;99.90
30381;DHT22;17169;50.966;11.038;2022-12-29T01:35:27;10.20;99.90
30381;DHT22;17169;50.966;11.038;2022-12-29T01:41:45;10.30;99.90
30381;DHT22;17169;50.966;11.038;2022-12-29T01:44:51;10.30;99.90
30381;DHT22;17169;50.966;11.038;2022-12-29T01:47:57;10.40;99.90
30381;DHT22;17169;50.966;11.038;2022-12-29T01:51:01;10.40;99.90
30381;DHT22;17169;50.966;11.038;2022-12-29T01:54:07;10.40;99.90
30381;DHT22;17169;50.966;11.038;2022-12-29T01:57:14;10.40;99.90
30381;DHT22;17169;50.966;11.038;2022-12-29T02:00:20;10.40;99.90
30381;DHT22;17169;50.966;11.038;2022-12-29T02:03:24;10.40;99.90
30381;DHT22;17169;50.966;11.038;2022-12-29T02:06:29;10.40;99.90
30381;DHT22;17169;50.966;11.038;2022-12-29T02:09:34;10.40;99.90
30381;DHT22;17169;50.966;11.038;2022-12-29T02:12:36;10.40;99.90
30381;DHT22;17169;50.966;11.038;2022-12-29T02:15:51;10.50;99.90
30381;DHT22;17169;50.966;11.038;2022-12-29T02:19:07;10.50;99.90
30381;DHT22;17169;50.966;11.038;2022-12-29T02:22:19;10.50;99.90
30381;DHT22;17169;50.966;11.038;2022-12-29T02:25:51;10.50;99.90
30381;DHT22;17169;50.966;11.038;2022-12-29T02:29:27;10.50;99.90
30381;DHT22;17169;50.966;11.038;2022-12-29T02:32:39;10.50;99.90
30381;DHT22;17169;50.966;11.038;2022-12-29T02:35:51;10.40;99.90
30381;DHT22;17169;50.966;11.038;2022-12-29T02:39:00;10.30;99.90
30381;DHT22;17169;50.966;11.038;2022-12-29T02:42:10;10.30;99.90
30381;DHT22;17169;50.966;11.038;2022-12-29T02:45:20;10.20;99.90
30381;DHT22;17169;50.966;11.038;2022-12-29T02:48:28;10.20;99.90
30381;DHT22;17169;50.966;11.038;2022-12-29T02:51:37;10.10;99.90
30381;DHT22;17169;50.966;11.038;2022-12-29T02:54:42;10.10;99.90
30381;DHT22;17169;50.966;11.038;2022-12-29T02:57:43;10.10;99.90
30381;DHT22;17169;50.966;11.038;2022-12-29T03:01:08;10.00;99.90
30381;DHT22;17169;50.966;11.038;2022-12-29T03:04:26;10.00;99.90
30381;DHT22;17169;50.966;11.038;2022-12-29T03:07:42;10.00;99.90
30381;DHT22;17169;50.966;11.038;2022-12-29T03:10:50;10.00;99.90
30381;DHT22;17169;50.966;11.038;2022-12-29T03:13:58;10.00;99.90
30381;DHT22;17169;50.966;11.038;2022-12-29T03:17:24;10.10;99.90
30381;DHT22;17169;50.966;11.038;2022-12-29T03:20:36;10.10;99.90
30381;DHT22;17169;50.966;11.038;2022-12-29T03:23:42;10.20;99.90
30381;DHT22;17169;50.966;11.038;2022-12-29T03:26:49;10.20;99.90
30381;DHT22;17169;50.966;11.038;2022-12-29T03:29:55;10.20;99.90
30381;DHT22;17169;50.966;11.038;2022-12-29T03:33:01;10.30;99.90
30381;DHT22;17169;50.966;11.038;2022-12-29T03:36:09;10.30;99.90
30381;DHT22;17169;50.966;11.038;2022-12-29T03:39:14;10.40;99.90
30381;DHT22;17169;50.966;11.038;2022-12-29T03:42:19;10.40;99.90
30381;DHT22;17169;50.966;11.038;2022-12-29T03:45:22;10.50;99.90
30381;DHT22;17169;50.966;11.038;2022-12-29T03:48:24;10.50;99.90
30381;DHT22;17169;50.966;11.038;2022-12-29T03:51:28;10.60;99.90
30381;DHT22;17169;50.966;11.038;2022-12-29T03:54:31;10.60;99.90
30381;DHT22;17169;50.966;11.038;2022-12-29T03:57:33;10.70;99.90
30381;DHT22;17169;50.966;11.038;2022-12-29T04:00:35;10.70;99.90
30381;DHT22;17169;50.966;11.038;2022-12-29T04:03:38;10.70;99.90
30381;DHT22;17169;50.966;11.038;2022-12-29T04:06:42;10.80;99.90
30381;DHT22;17169;50.966;11.038;2022-12-29T04:09:44;10.80;99.90
30381;DHT22;17169;50.966;11.038;2022-12-29T04:12:46;10.80;99.90
30381;DHT22;17169;50.966;11.038;2022-12-29T04:15:49;10.80;99.90
30381;DHT22;17169;50.966;11.038;2022-12-29T04:18:51;10.80;99.90
30381;DHT22;17169;50.966;11.038;2022-12-29T04:21:55;10.80;99.90
30381;DHT22;17169;50.966;11.038;2022-12-29T04:24:57;10.80;99.90
30381;DHT22;17169;50.966;11.038;2022-12-29T04:28:00;10.80;99.90
30381;DHT22;17169;50.966;11.038;2022-12-29T04:31:03;10.80;99.90
30381;DHT22;17169;50.966;11.038;2022-12-29T04:34:05;10.80;99.90
30381;DHT22;17169;50.966;11.038;2022-12-29T04:37:09;10.80;99.90
30381;DHT22;17169;50.966;11.038;2022-12-29T04:40:11;10.80;99.90
30381;DHT22;17169;50.966;11.038;2022-12-29T04:43:14;10.80;99.90
30381;DHT22;17169;50.966;11.038;2022-12-29T04:46:17;10.80;99.90
30381;DHT22;17169;50.966;11.038;2022-12-29T04:49:20;10.80;99.90
30381;DHT22;17169;50.966;11.038;2022-12-29T04:52:23;10.80;99.90
30381;DHT22;17169;50.966;11.038;2022-12-29T04:55:26;10.80;99.90
30381;DHT22;17169;50.966;11.038;2022-12-29T04:58:28;10.80;99.90
30381;DHT22;17169;50.966;11.038;2022-12-29T05:01:30;10.80;99.90
30381;DHT22;17169;50.966;11.038;2022-12-29T05:04:33;10.80;99.90
30381;DHT22;17169;50.966;11.038;2022-12-29T05:07:36;10.80;99.90
30381;DHT22;17169;50.966;11.038;2022-12-29T05:10:39;10.80;99.90
30381;DHT22;17169;50.966;11.038;2022-12-29T05:13:44;10.80;99.90
30381;DHT22;17169;50.966;11.038;2022-12-29T05:16:46;10.80;99.90
30381;DHT22;17169;50.966;11.038;2022-12-29T05:19:49;10.90;99.90
30381;DHT22;17169;50.966;11.038;2022-12-29T05:22:53;10.90;99.90
30381;DHT22;17169;50.966;11.038;2022-12-29T05:25:56;10.90;99.90
30381;DHT22;17169;50.966;11.038;2022-12-29T05:28:58;11.00;99.90
30381;DHT22;17169;50.966;11.038;2022-12-29T05:32:00;11.00;99.90
30381;DHT22;17169;50.966;11.038;2022-12-29T05:35:03;11.10;99.90
30381;DHT22;17169;50.966;11.038;2022-12-29T05:38:07;11.00;99.90
30381;DHT22;17169;50.966;11.038;2022-12-29T05:41:10;11.10;99.90
30381;DHT22;17169;50.966;11.038;2022-12-29T05:44:13;11.20;99.90
30381;DHT22;17169;50.966;11.038;2022-12-29T05:47:15;11.20;99.90
30381;DHT22;17169;50.966;11.038;2022-12-29T05:50:18;11.20;99.90
30381;DHT22;17169;50.966;11.038;2022-12-29T05:53:21;11.20;99.90
30381;DHT22;17169;50.966;11.038;2022-12-29T05:56:24;11.20;99.90
30381;DHT22;17169;50.966;11.038;2022-12-29T05:59:26;11.20;99.90
30381;DHT22;17169;50.966;11.038;2022-12-29T06:02:28;11.20;99.90
30381;DHT22;17169;50.966;11.038;2022-12-29T06:05:31;11.20;99.90
30381;DHT22;17169;50.966;11.038;2022-12-29T06:08:35;11.20;99.90
30381;DHT22;17169;50.966;11.038;2022-12-29T06:11:37;11.20;99.90
30381;DHT22;17169;50.966;11.038;2022-12-29T06:14:39;11.10;99.90
30381;DHT22;17169;50.966;11.038;2022-12-29T06:17:42;11.10;99.90
30381;DHT22;17169;50.966;11.038;2022-12-29T06:20:44;11.10;99.90
30381;DHT22;17169;50.966;11.038;2022-12-29T06:23:48;11.10;99.90
30381;DHT22;17169;50.966;11.038;2022-12-29T06:26:51;11.10;99.90
30381;DHT22;17169;50.966;11.038;2022-12-29T06:29:53;11.00;99.90
30381;DHT22;17169;50.966;11.038;2022-12-29T06:32:55;11.10;99.90
30381;DHT22;17169;50.966;11.038;2022-12-29T06:35:58;11.10;99.90
30381;DHT22;17169;50.966;11.038;2022-12-29T06:39:01;11.20;99.90
30381;DHT22;17169;50.966;11.038;2022-12-29T06:42:04;11.20;99.90
30381;DHT22;17169;50.966;11.038;2022-12-29T06:45:07;11.20;99.90
30381;DHT22;17169;50.966;11.038;2022-12-29T06:48:09;11.30;99.90
30381;DHT22;17169;50.966;11.038;2022-12-29T06:51:12;11.30;99.90
30381;DHT22;17169;50.966;11.038;2022-12-29T06:54:16;11.40;99.90
30381;DHT22;17169;50.966;11.038;2022-12-29T06:57:18;11.40;99.90
30381;DHT22;17169;50.966;11.038;2022-12-29T07:00:20;11.40;99.90
30381;DHT22;17169;50.966;11.038;2022-12-29T07:03:23;11.40;99.90
30381;DHT22;17169;50.966;11.038;2022-12-29T07:06:25;11.40;99.90
30381;DHT22;17169;50.966;11.038;2022-12-29T07:09:29;11.50;99.90
30381;DHT22;17169;50.966;11.038;2022-12-29T07:12:31;11.50;99.90
30381;DHT22;17169;50.966;11.038;2022-12-29T07:15:33;11.50;99.90
30381;DHT22;17169;50.966;11.038;2022-12-29T07:18:36;11.50;99.90
30381;DHT22;17169;50.966;11.038;2022-12-29T07:21:38;11.50;99.90
30381;DHT22;17169;50.966;11.038;2022-12-29T07:24:42;11.50;99.90
30381;DHT22;17169;50.966;11.038;2022-12-29T07:27:45;11.60;99.90
30381;DHT22;17169;50.966;11.038;2022-12-29T07:30:47;11.60;99.90
30381;DHT22;17169;50.966;11.038;2022-12-29T07:33:49;11.70;99.90
30381;DHT22;17169;50.966;11.038;2022-12-29T07:36:52;11.70;99.90
30381;DHT22;17169;50.966;11.038;2022-12-29T07:39:55;11.70;99.90
30381;DHT22;17169;50.966;11.038;2022-12-29T07:42:58;11.70;99.90
30381;DHT22;17169;50.966;11.038;2022-12-29T07:46:00;11.70;99.90
30381;DHT22;17169;50.966;11.038;2022-12-29T07:49:03;11.80;99.90
30381;DHT22;17169;50.966;11.038;2022-12-29T07:52:05;11.80;99.90
30381;DHT22;17169;50.966;11.038;2022-12-29T07:55:09;11.80;99.90
30381;DHT22;17169;50.966;11.038;2022-12-29T07:58:11;11.80;99.90
30381;DHT22;17169;50.966;11.038;2022-12-29T08:01:14;11.80;99.90
30381;DHT22;17169;50.966;11.038;2022-12-29T08:04:16;11.80;99.90
30381;DHT22;17169;50.966;11.038;2022-12-29T08:07:19;11.80;99.90
30381;DHT22;17169;50.966;11.038;2022-12-29T08:10:22;11.80;99.90
30381;DHT22;17169;50.966;11.038;2022-12-29T08:13:25;11.80;99.90
30381;DHT22;17169;50.966;11.038;2022-12-29T08:16:28;11.80;99.90
30381;DHT22;17169;50.966;11.038;2022-12-29T08:19:30;11.70;99.90
30381;DHT22;17169;50.966;11.038;2022-12-29T08:22:32;11.70;99.90
30381;DHT22;17169;50.966;11.038;2022-12-29T08:25:36;11.70;99.90
30381;DHT22;17169;50.966;11.038;2022-12-29T08:28:38;11.80;99.90
30381;DHT22;17169;50.966;11.038;2022-12-29T08:31:41;11.80;99.90
30381;DHT22;17169;50.966;11.038;2022-12-29T08:34:43;11.80;99.90
30381;DHT22;17169;50.966;11.038;2022-12-29T08:37:46;11.80;99.90
30381;DHT22;17169;50.966;11.038;2022-12-29T08:40:51;11.90;99.90
30381;DHT22;17169;50.966;11.038;2022-12-29T08:43:53;11.90;99.90
30381;DHT22;17169;50.966;11.038;2022-12-29T08:46:56;11.90;99.90
30381;DHT22;17169;50.966;11.038;2022-12-29T08:49:58;11.90;99.90
30381;DHT22;17169;50.966;11.038;2022-12-29T08:53:00;11.90;99.90
30381;DHT22;17169;50.966;11.038;2022-12-29T08:56:05;11.90;99.90
30381;DHT22;17169;50.966;11.038;2022-12-29T08:59:07;12.00;99.90
30381;DHT22;17169;50.966;11.038;2022-12-29T09:02:10;12.00;99.90
30381;DHT22;17169;50.966;11.038;2022-12-29T09:05:13;12.00;99.90
30381;DHT22;17169;50.966;11.038;2022-12-29T09:08:16;12.10;99.90
30381;DHT22;17169;50.966;11.038;2022-12-29T09:11:22;12.10;99.90
30381;DHT22;17169;50.966;11.038;2022-12-29T09:14:24;12.10;99.90
30381;DHT22;17169;50.966;11.038;2022-12-29T09:17:27;12.10;99.90
30381;DHT22;17169;50.966;11.038;2022-12-29T09:20:45;12.10;99.90
30381;DHT22;17169;50.966;11.038;2022-12-29T09:23:48;12.10;99.90
30381;DHT22;17169;50.966;11.038;2022-12-29T09:26:53;12.00;99.90
30381;DHT22;17169;50.966;11.038;2022-12-29T09:29:55;12.10;99.90
30381;DHT22;17169;50.966;11.038;2022-12-29T09:32:57;12.00;99.90
30381;DHT22;17169;50.966;11.038;2022-12-29T09:36:00;12.10;99.90
30381;DHT22;17169;50.966;11.038;2022-12-29T09:39:02;12.10;99.90
30381;DHT22;17169;50.966;11.038;2022-12-29T09:42:11;12.10;99.90
30381;DHT22;17169;50.966;11.038;2022-12-29T09:45:18;12.10;99.90
30381;DHT22;17169;50.966;11.038;2022-12-29T09:48:25;12.10;99.90
30381;DHT22;17169;50.966;11.038;2022-12-29T09:51:31;12.20;99.90
30381;DHT22;17169;50.966;11.038;2022-12-29T09:54:36;12.30;99.90
30381;DHT22;17169;50.966;11.038;2022-12-29T09:57:46;12.30;99.90
30381;DHT22;17169;50.966;11.038;2022-12-29T10:00:54;12.30;99.90
30381;DHT22;17169;50.966;11.038;2022-12-29T10:03:59;12.40;99.90
30381;DHT22;17169;50.966;11.038;2022-12-29T10:07:10;12.40;99.90
30381;DHT22;17169;50.966;11.038;2022-12-29T10:10:24;12.40;99.90
30381;DHT22;17169;50.966;11.038;2022-12-29T10:13:38;12.40;99.90
30381;DHT22;17169;50.966;11.038;2022-12-29T10:16:51;12.40;99.90
30381;DHT22;17169;50.966;11.038;2022-12-29T10:20:15;12.50;99.90
30381;DHT22;17169;50.966;11.038;2022-12-29T10:23:26;12.50;99.90
30381;DHT22;17169;50.966;11.038;2022-12-29T10:26:33;12.60;99.90
30381;DHT22;17169;50.966;11.038;2022-12-29T10:29:41;12.60;99.90
30381;DHT22;17169;50.966;11.038;2022-12-29T10:32:49;12.70;99.90
30381;DHT22;17169;50.966;11.038;2022-12-29T10:35:52;12.70;99.90
30381;DHT22;17169;50.966;11.038;2022-12-29T10:39:04;12.70;99.90
30381;DHT22;17169;50.966;11.038;2022-12-29T10:42:18;12.80;99.90
30381;DHT22;17169;50.966;11.038;2022-12-29T10:45:27;12.80;99.90
30381;DHT22;17169;50.966;11.038;2022-12-29T10:48:32;12.80;99.90
30381;DHT22;17169;50.966;11.038;2022-12-29T10:51:38;12.90;99.90
30381;DHT22;17169;50.966;11.038;2022-12-29T10:54:45;12.90;99.90
30381;DHT22;17169;50.966;11.038;2022-12-29T10:57:50;12.90;99.90
30381;DHT22;17169;50.966;11.038;2022-12-29T11:00:54;12.90;99.90
30381;DHT22;17169;50.966;11.038;2022-12-29T11:04:03;12.90;99.90
30381;DHT22;17169;50.966;11.038;2022-12-29T11:07:06;12.90;99.90
30381;DHT22;17169;50.966;11.038;2022-12-29T11:10:17;13.00;99.90
30381;DHT22;17169;50.966;11.038;2022-12-29T11:13:25;13.10;99.90
30381;DHT22;17169;50.966;11.038;2022-12-29T11:16:31;13.20;99.90
30381;DHT22;17169;50.966;11.038;2022-12-29T11:19:33;13.20;99.90
30381;DHT22;17169;50.966;11.038;2022-12-29T11:22:43;13.20;99.90
30381;DHT22;17169;50.966;11.038;2022-12-29T11:25:46;13.20;99.90
30381;DHT22;17169;50.966;11.038;2022-12-29T11:29:20;13.20;99.90
30381;DHT22;17169;50.966;11.038;2022-12-29T11:32:26;13.30;99.90
30381;DHT22;17169;50.966;11.038;2022-12-29T11:35:33;13.40;99.90
30381;DHT22;17169;50.966;11.038;2022-12-29T11:38:37;13.40;99.90
30381;DHT22;17169;50.966;11.038;2022-12-29T11:41:41;13.40;99.90
30381;DHT22;17169;50.966;11.038;2022-12-29T11:44:45;13.40;99.90
30381;DHT22;17169;50.966;11.038;2022-12-29T11:47:51;13.40;99.90
30381;DHT22;17169;50.966;11.038;2022-12-29T11:50:57;13.30;99.90
30381;DHT22;17169;50.966;11.038;2022-12-29T11:54:02;13.20;99.90
30381;DHT22;17169;50.966;11.038;2022-12-29T11:57:09;13.00;99.90
30381;DHT22;17169;50.966;11.038;2022-12-29T12:00:17;12.90;99.90
30381;DHT22;17169;50.966;11.038;2022-12-29T12:03:24;12.80;99.90
30381;DHT22;17169;50.966;11.038;2022-12-29T12:06:30;12.80;99.90
30381;DHT22;17169;50.966;11.038;2022-12-29T12:09:38;12.70;99.90
30381;DHT22;17169;50.966;11.038;2022-12-29T12:12:51;12.80;99.90
30381;DHT22;17169;50.966;11.038;2022-12-29T12:15:58;12.80;99.90
30381;DHT22;17169;50.966;11.038;2022-12-29T12:19:09;12.80;99.90
30381;DHT22;17169;50.966;11.038;2022-12-29T12:22:21;12.70;99.90
30381;DHT22;17169;50.966;11.038;2022-12-29T12:25:32;12.80;99.90
30381;DHT22;17169;50.966;11.038;2022-12-29T12:28:42;12.70;99.90
30381;DHT22;17169;50.966;11.038;2022-12-29T12:31:53;12.70;99.90
30381;DHT22;17169;50.966;11.038;2022-12-29T12:34:58;12.70;99.90
30381;DHT22;17169;50.966;11.038;2022-12-29T12:38:14;12.70;99.90
30381;DHT22;17169;50.966;11.038;2022-12-29T12:41:21;12.60;99.90
30381;DHT22;17169;50.966;11.038;2022-12-29T12:44:32;12.50;99.90
30381;DHT22;17169;50.966;11.038;2022-12-29T12:47:52;12.40;99.90
30381;DHT22;17169;50.966;11.038;2022-12-29T12:51:07;12.40;99.90
30381;DHT22;17169;50.966;11.038;2022-12-29T12:54:25;12.30;99.90
30381;DHT22;17169;50.966;11.038;2022-12-29T12:57:40;12.40;99.90
30381;DHT22;17169;50.966;11.038;2022-12-29T13:00:59;12.40;99.90
30381;DHT22;17169;50.966;11.038;2022-12-29T13:04:32;12.50;99.90
30381;DHT22;17169;50.966;11.038;2022-12-29T13:07:44;12.40;99.90
30381;DHT22;17169;50.966;11.038;2022-12-29T13:10:54;12.40;99.90
30381;DHT22;17169;50.966;11.038;2022-12-29T13:14:11;12.40;99.90
30381;DHT22;17169;50.966;11.038;2022-12-29T13:17:21;12.40;99.90
30381;DHT22;17169;50.966;11.038;2022-12-29T13:20:31;12.50;99.90
30381;DHT22;17169;50.966;11.038;2022-12-29T13:23:42;12.60;99.90
30381;DHT22;17169;50.966;11.038;2022-12-29T13:26:50;12.70;99.90
30381;DHT22;17169;50.966;11.038;2022-12-29T13:30:01;12.70;99.90
30381;DHT22;17169;50.966;11.038;2022-12-29T13:33:12;12.70;99.90
30381;DHT22;17169;50.966;11.038;2022-12-29T13:36:23;12.70;99.90
30381;DHT22;17169;50.966;11.038;2022-12-29T13:39:33;12.70;99.90
30381;DHT22;17169;50.966;11.038;2022-12-29T13:42:36;12.60;99.90
30381;DHT22;17169;50.966;11.038;2022-12-29T13:45:39;12.60;99.90
30381;DHT22;17169;50.966;11.038;2022-12-29T13:48:46;12.60;99.90
30381;DHT22;17169;50.966;11.038;2022-12-29T13:51:52;12.50;99.90
30381;DHT22;17169;50.966;11.038;2022-12-29T13:55:01;12.50;99.90
30381;DHT22;17169;50.966;11.038;2022-12-29T13:58:14;12.50;99.90
30381;DHT22;17169;50.966;11.038;2022-12-29T14:01:24;12.60;99.90
30381;DHT22;17169;50.966;11.038;2022-12-29T14:04:30;12.60;99.90
30381;DHT22;17169;50.966;11.038;2022-12-29T14:07:37;12.50;99.90
30381;DHT22;17169;50.966;11.038;2022-12-29T14:10:48;12.40;99.90
30381;DHT22;17169;50.966;11.038;2022-12-29T14:13:51;12.40;99.90
30381;DHT22;17169;50.966;11.038;2022-12-29T14:16:54;12.40;99.90
30381;DHT22;17169;50.966;11.038;2022-12-29T14:19:58;12.50;99.90
30381;DHT22;17169;50.966;11.038;2022-12-29T14:23:16;12.50;99.90
30381;DHT22;17169;50.966;11.038;2022-12-29T14:26:34;12.40;99.90
30381;DHT22;17169;50.966;11.038;2022-12-29T14:29:43;12.30;99.90
30381;DHT22;17169;50.966;11.038;2022-12-29T14:33:01;12.30;99.90
30381;DHT22;17169;50.966;11.038;2022-12-29T14:36:19;12.20;99.90
30381;DHT22;17169;50.966;11.038;2022-12-29T14:39:31;12.10;99.90
30381;DHT22;17169;50.966;11.038;2022-12-29T14:42:35;12.00;99.90
30381;DHT22;17169;50.966;11.038;2022-12-29T14:45:42;11.90;99.90
30381;DHT22;17169;50.966;11.038;2022-12-29T14:48:44;11.80;99.90
30381;DHT22;17169;50.966;11.038;2022-12-29T14:51:47;11.80;99.90
30381;DHT22;17169;50.966;11.038;2022-12-29T14:54:52;11.70;99.90
30381;DHT22;17169;50.966;11.038;2022-12-29T14:58:01;11.60;99.90
30381;DHT22;17169;50.966;11.038;2022-12-29T15:01:04;11.70;99.90
30381;DHT22;17169;50.966;11.038;2022-12-29T15:04:20;11.60;99.90
30381;DHT22;17169;50.966;11.038;2022-12-29T15:07:22;11.50;99.90
30381;DHT22;17169;50.966;11.038;2022-12-29T15:10:26;11.50;99.90
30381;DHT22;17169;50.966;11.038;2022-12-29T15:13:36;11.50;99.90
30381;DHT22;17169;50.966;11.038;2022-12-29T15:16:39;11.40;99.90
30381;DHT22;17169;50.966;11.038;2022-12-29T15:19:41;11.40;99.90
30381;DHT22;17169;50.966;11.038;2022-12-29T15:22:44;11.30;99.90
30381;DHT22;17169;50.966;11.038;2022-12-29T15:25:50;11.20;99.90
30381;DHT22;17169;50.966;11.038;2022-12-29T15:28:56;11.20;99.90
30381;DHT22;17169;50.966;11.038;2022-12-29T15:32:00;11.20;99.90
30381;DHT22;17169;50.966;11.038;2022-12-29T15:35:23;11.20;99.90
30381;DHT22;17169;50.966;11.038;2022-12-29T15:38:28;11.10;99.90
30381;DHT22;17169;50.966;11.038;2022-12-29T15:41:36;11.10;99.90
30381;DHT22;17169;50.966;11.038;2022-12-29T15:44:57;11.00;99.90
30381;DHT22;17169;50.966;11.038;2022-12-29T15:47:59;11.00;99.90
30381;DHT22;17169;50.966;11.038;2022-12-29T15:51:02;11.00;99.90
30381;DHT22;17169;50.966;11.038;2022-12-29T15:54:05;10.90;99.90
30381;DHT22;17169;50.966;11.038;2022-12-29T15:57:17;10.90;99.90
30381;DHT22;17169;50.966;11.038;2022-12-29T16:00:26;10.80;99.90
30381;DHT22;17169;50.966;11.038;2022-12-29T16:03:32;10.80;99.90
30381;DHT22;17169;50.966;11.038;2022-12-29T16:06:36;10.80;99.90
30381;DHT22;17169;50.966;11.038;2022-12-29T16:09:43;10.80;99.90
30381;DHT22;17169;50.966;11.038;2022-12-29T16:12:45;10.70;99.90
30381;DHT22;17169;50.966;11.038;2022-12-29T16:15:49;10.70;99.90
30381;DHT22;17169;50.966;11.038;2022-12-29T16:18:52;10.70;99.90
30381;DHT22;17169;50.966;11.038;2022-12-29T16:21:55;10.70;99.90
30381;DHT22;17169;50.966;11.038;2022-12-29T16:25:02;10.60;99.90
30381;DHT22;17169;50.966;11.038;2022-12-29T16:28:16;10.60;99.90
30381;DHT22;17169;50.966;11.038;2022-12-29T16:31:22;10.60;99.90
30381;DHT22;17169;50.966;11.038;2022-12-29T16:34:28;10.60;99.90
30381;DHT22;17169;50.966;11.038;2022-12-29T16:37:32;10.50;99.90
30381;DHT22;17169;50.966;11.038;2022-12-29T16:40:38;10.50;99.90
30381;DHT22;17169;50.966;11.038;2022-12-29T16:43:42;10.50;99.90
30381;DHT22;17169;50.966;11.038;2022-12-29T16:46:58;10.40;99.90
30381;DHT22;17169;50.966;11.038;2022-12-29T16:50:12;10.40;99.90
30381;DHT22;17169;50.966;11.038;2022-12-29T16:53:21;10.40;99.90
30381;DHT22;17169;50.966;11.038;2022-12-29T16:56:27;10.40;99.90
30381;DHT22;17169;50.966;11.038;2022-12-29T16:59:33;10.40;99.90
30381;DHT22;17169;50.966;11.038;2022-12-29T17:02:37;10.40;99.90
30381;DHT22;17169;50.966;11.038;2022-12-29T17:05:45;10.50;99.90
30381;DHT22;17169;50.966;11.038;2022-12-29T17:08:48;10.50;99.90
30381;DHT22;17169;50.966;11.038;2022-12-29T17:11:53;10.50;99.90
30381;DHT22;17169;50.966;11.038;2022-12-29T17:14:58;10.60;99.90
30381;DHT22;17169;50.966;11.038;2022-12-29T17:18:03;10.60;99.90
30381;DHT22;17169;50.966;11.038;2022-12-29T17:21:05;10.60;99.90
30381;DHT22;17169;50.966;11.038;2022-12-29T17:24:13;10.60;99.90
30381;DHT22;17169;50.966;11.038;2022-12-29T17:27:22;10.60;99.90
30381;DHT22;17169;50.966;11.038;2022-12-29T17:30:26;10.60;99.90
30381;DHT22;17169;50.966;11.038;2022-12-29T17:33:35;10.60;99.90
30381;DHT22;17169;50.966;11.038;2022-12-29T17:36:38;10.60;99.90
30381;DHT22;17169;50.966;11.038;2022-12-29T17:39:40;10.70;99.90
30381;DHT22;17169;50.966;11.038;2022-12-29T17:42:44;10.70;99.90
30381;DHT22;17169;50.966;11.038;2022-12-29T17:45:51;10.70;99.90
30381;DHT22;17169;50.966;11.038;2022-12-29T17:48:55;10.70;99.90
30381;DHT22;17169;50.966;11.038;2022-12-29T17:51:58;10.60;99.90
30381;DHT22;17169;50.966;11.038;2022-12-29T17:55:00;10.50;99.90
30381;DHT22;17169;50.966;11.038;2022-12-29T17:58:14;10.50;99.90
30381;DHT22;17169;50.966;11.038;2022-12-29T18:01:17;10.50;99.90
30381;DHT22;17169;50.966;11.038;2022-12-29T18:04:23;10.40;99.90
30381;DHT22;17169;50.966;11.038;2022-12-29T18:07:26;10.40;99.90
30381;DHT22;17169;50.966;11.038;2022-12-29T18:10:29;10.30;99.90
30381;DHT22;17169;50.966;11.038;2022-12-29T18:13:32;10.30;99.90
30381;DHT22;17169;50.966;11.038;2022-12-29T18:16:34;10.20;99.90
30381;DHT22;17169;50.966;11.038;2022-12-29T18:19:38;10.20;99.90
30381;DHT22;17169;50.966;11.038;2022-12-29T18:22:41;10.30;99.90
30381;DHT22;17169;50.966;11.038;2022-12-29T18:25:47;10.30;99.90
30381;DHT22;17169;50.966;11.038;2022-12-29T18:28:50;10.30;99.90
30381;DHT22;17169;50.966;11.038;2022-12-29T18:31:53;10.40;99.90
30381;DHT22;17169;50.966;11.038;2022-12-29T18:34:57;10.30;99.90
30381;DHT22;17169;50.966;11.038;2022-12-29T18:37:59;10.30;99.90
30381;DHT22;17169;50.966;11.038;2022-12-29T18:41:02;10.30;99.90
30381;DHT22;17169;50.966;11.038;2022-12-29T18:44:04;10.20;99.90
30381;DHT22;17169;50.966;11.038;2022-12-29T18:47:12;10.10;99.90
30381;DHT22;17169;50.966;11.038;2022-12-29T18:50:17;10.10;99.90
30381;DHT22;17169;50.966;11.038;2022-12-29T18:53:21;10.10;99.90
30381;DHT22;17169;50.966;11.038;2022-12-29T18:56:24;10.10;99.90
30381;DHT22;17169;50.966;11.038;2022-12-29T18:59:27;10.10;99.90
30381;DHT22;17169;50.966;11.038;2022-12-29T19:02:29;10.10;99.90
30381;DHT22;17169;50.966;11.038;2022-12-29T19:05:37;10.10;99.90
30381;DHT22;17169;50.966;11.038;2022-12-29T19:08:40;10.10;99.90
30381;DHT22;17169;50.966;11.038;2022-12-29T19:11:42;10.10;99.90
30381;DHT22;17169;50.966;11.038;2022-12-29T19:14:45;10.00;99.90
30381;DHT22;17169;50.966;11.038;2022-12-29T19:17:47;10.00;99.90
30381;DHT22;17169;50.966;11.038;2022-12-29T19:20:53;9.90;99.90